createdAt,value
2022-10-23T00:01:43.653Z,18.83
2022-10-23T00:04:19.511Z,19.55
2022-10-23T00:06:47.143Z,19.42
2022-10-23T00:09:17.828Z,20.02
2022-10-23T00:11:47.865Z,20.83
2022-10-23T00:14:16.045Z,21.02
2022-10-23T00:16:42.666Z,20.52
2022-10-23T00:19:09.321Z,20.23
2022-10-23T00:21:39.692Z,17.30
2022-10-23T00:26:40.669Z,16.98
2022-10-23T00:29:08.689Z,14.05
2022-10-23T00:31:35.507Z,13.48
2022-10-23T00:34:02.454Z,12.30
2022-10-23T00:36:29.127Z,10.80
2022-10-23T00:38:56.181Z,9.77
2022-10-23T00:41:28.539Z,8.82
2022-10-23T00:44:01.596Z,8.13
2022-10-23T00:46:29.023Z,8.52
2022-10-23T00:48:56.104Z,8.48
2022-10-23T00:51:25.917Z,7.80
2022-10-23T00:54:23.436Z,7.28
2022-10-23T00:56:58.104Z,6.70
2022-10-23T00:59:25.263Z,6.97
2022-10-23T01:01:52.218Z,6.80
2022-10-23T01:04:19.739Z,6.50
2022-10-23T01:06:52.431Z,5.78
2022-10-23T01:09:42.141Z,6.35
2022-10-23T01:12:27.025Z,6.20
2022-10-23T01:14:56.364Z,5.97
2022-10-23T01:17:35.159Z,6.15
2022-10-23T01:20:11.426Z,6.30
2022-10-23T01:23:00.280Z,5.72
2022-10-23T01:25:30.129Z,5.70
2022-10-23T01:28:04.995Z,5.50
2022-10-23T01:30:37.881Z,5.22
2022-10-23T01:33:13.844Z,5.60
2022-10-23T01:35:54.832Z,5.00
2022-10-23T01:38:27.682Z,5.55
2022-10-23T01:41:39.985Z,5.32
2022-10-23T01:44:15.146Z,5.43
2022-10-23T01:46:43.921Z,5.78
2022-10-23T01:49:13.108Z,5.15
2022-10-23T01:51:43.436Z,4.70
2022-10-23T01:54:13.669Z,5.35
2022-10-23T01:56:44.130Z,5.20
2022-10-23T01:59:20.184Z,5.78
2022-10-23T02:01:50.990Z,5.38
2022-10-23T02:04:28.065Z,5.93
2022-10-23T02:06:54.881Z,5.45
2022-10-23T02:09:21.634Z,4.65
2022-10-23T02:11:58.810Z,4.32
2022-10-23T02:14:43.999Z,5.20
2022-10-23T02:17:55.911Z,4.90
2022-10-23T02:20:25.102Z,5.25
2022-10-23T02:23:11.882Z,5.03
2022-10-23T02:25:51.335Z,4.75
2022-10-23T02:28:23.784Z,5.75
2022-10-23T02:30:50.835Z,5.00
2022-10-23T02:33:19.014Z,4.78
2022-10-23T02:35:49.511Z,4.72
2022-10-23T02:38:37.721Z,5.65
2022-10-23T02:41:17.150Z,4.57
2022-10-23T02:44:02.334Z,5.38
2022-10-23T02:46:28.882Z,4.32
2022-10-23T02:49:13.754Z,4.93
2022-10-23T02:51:51.345Z,5.88
2022-10-23T02:54:27.922Z,5.13
2022-10-23T02:57:06.169Z,6.15
2022-10-23T02:59:45.710Z,5.20
2022-10-23T03:02:21.857Z,4.88
2022-10-23T03:04:50.237Z,5.28
2022-10-23T03:07:19.477Z,6.35
2022-10-23T03:09:46.973Z,5.97
2022-10-23T03:12:14.019Z,5.95
2022-10-23T03:14:42.964Z,5.88
2022-10-23T03:17:10.561Z,6.05
2022-10-23T03:19:39.015Z,5.78
2022-10-23T03:22:05.841Z,6.30
2022-10-23T03:24:32.736Z,5.60
2022-10-23T03:26:59.401Z,6.38
2022-10-23T03:29:26.215Z,5.80
2022-10-23T03:31:53.399Z,6.28
2022-10-23T03:34:20.110Z,6.47
2022-10-23T03:36:46.779Z,6.10
2022-10-23T03:39:18.624Z,6.40
2022-10-23T03:41:48.450Z,6.40
2022-10-23T03:44:15.193Z,6.70
2022-10-23T03:46:41.787Z,6.40
2022-10-23T03:49:11.770Z,6.75
2022-10-23T03:51:41.858Z,6.32
2022-10-23T03:54:11.258Z,5.70
2022-10-23T03:56:38.234Z,6.25
2022-10-23T03:59:05.023Z,6.10
2022-10-23T04:01:31.656Z,5.55
2022-10-23T04:03:58.292Z,5.75
2022-10-23T04:06:24.881Z,6.53
2022-10-23T04:08:51.918Z,6.50
2022-10-23T04:11:18.522Z,6.13
2022-10-23T04:13:45.299Z,5.95
2022-10-23T04:16:12.068Z,6.38
2022-10-23T04:18:40.887Z,5.93
2022-10-23T04:21:07.712Z,5.93
2022-10-23T04:23:34.602Z,6.18
2022-10-23T04:26:01.795Z,5.45
2022-10-23T04:28:28.508Z,5.32
2022-10-23T04:30:55.141Z,5.50
2022-10-23T04:33:27.472Z,5.60
2022-10-23T04:35:54.123Z,5.50
2022-10-23T04:38:20.870Z,4.90
2022-10-23T04:40:47.663Z,5.13
2022-10-23T04:43:14.268Z,5.35
2022-10-23T04:45:43.131Z,5.43
2022-10-23T04:48:12.038Z,4.90
2022-10-23T04:50:38.666Z,5.53
2022-10-23T04:53:05.286Z,5.15
2022-10-23T04:55:36.629Z,5.30
2022-10-23T04:58:05.735Z,5.22
2022-10-23T05:00:32.591Z,4.97
2022-10-23T05:03:04.096Z,5.50
2022-10-23T05:05:30.888Z,5.63
2022-10-23T05:07:59.887Z,5.18
2022-10-23T05:10:26.603Z,5.38
2022-10-23T05:12:53.288Z,5.55
2022-10-23T05:15:19.896Z,5.38
2022-10-23T05:17:49.485Z,4.88
2022-10-23T05:20:20.576Z,5.40
2022-10-23T05:22:51.354Z,5.32
2022-10-23T05:25:18.671Z,5.50
2022-10-23T05:27:45.821Z,5.35
2022-10-23T05:30:13.277Z,4.78
2022-10-23T05:32:40.932Z,5.03
2022-10-23T05:35:11.715Z,5.22
2022-10-23T05:37:41.688Z,4.90
2022-10-23T05:40:09.098Z,5.32
2022-10-23T05:42:38.259Z,5.50
2022-10-23T05:45:10.975Z,5.30
2022-10-23T05:47:37.801Z,5.28
2022-10-23T05:50:04.919Z,4.93
2022-10-23T05:52:31.642Z,4.90
2022-10-23T05:54:58.198Z,5.25
2022-10-23T05:57:24.804Z,4.40
2022-10-23T05:59:51.565Z,5.18
2022-10-23T06:02:18.739Z,4.97
2022-10-23T06:04:45.468Z,5.68
2022-10-23T06:07:12.104Z,5.13
2022-10-23T06:09:38.950Z,4.70
2022-10-23T06:12:08.905Z,4.60
2022-10-23T06:14:35.720Z,5.60
2022-10-23T06:17:02.342Z,5.05
2022-10-23T06:19:28.983Z,5.07
2022-10-23T06:21:55.792Z,5.20
2022-10-23T06:24:22.616Z,5.30
2022-10-23T06:26:49.614Z,5.35
2022-10-23T06:29:16.404Z,5.60
2022-10-23T06:31:45.544Z,5.05
2022-10-23T06:34:12.834Z,4.63
2022-10-23T06:36:39.636Z,5.32
2022-10-23T06:39:06.903Z,5.43
2022-10-23T06:41:36.064Z,5.57
2022-10-23T06:44:02.995Z,4.95
2022-10-23T06:46:33.218Z,5.20
2022-10-23T06:49:02.360Z,5.32
2022-10-23T06:51:29.826Z,4.57
2022-10-23T06:53:57.175Z,5.05
2022-10-23T06:56:25.336Z,5.20
2022-10-23T06:58:52.212Z,5.45
2022-10-23T07:01:19.093Z,5.55
2022-10-23T07:03:48.833Z,5.68
2022-10-23T07:06:17.976Z,5.13
2022-10-23T07:08:44.710Z,5.28
2022-10-23T07:11:14.536Z,5.75
2022-10-23T07:13:42.185Z,5.85
2022-10-23T07:16:17.425Z,6.00
2022-10-23T07:18:44.550Z,5.18
2022-10-23T07:21:11.601Z,6.05
2022-10-23T07:23:38.630Z,5.88
2022-10-23T07:26:14.609Z,5.30
2022-10-23T07:28:46.613Z,5.90
2022-10-23T07:31:13.569Z,5.82
2022-10-23T07:33:40.355Z,5.38
2022-10-23T07:36:08.589Z,5.78
2022-10-23T07:38:37.941Z,6.00
2022-10-23T07:41:06.863Z,5.60
2022-10-23T07:43:35.724Z,5.68
2022-10-23T07:46:02.668Z,5.78
2022-10-23T07:48:29.324Z,5.45
2022-10-23T07:51:01.641Z,5.82
2022-10-23T07:53:28.653Z,5.07
2022-10-23T07:56:02.661Z,5.82
2022-10-23T07:58:30.091Z,5.20
2022-10-23T08:00:59.304Z,5.53
2022-10-23T08:03:33.317Z,5.55
2022-10-23T08:06:00.460Z,5.20
2022-10-23T08:08:27.914Z,5.07
2022-10-23T08:10:57.736Z,4.97
2022-10-23T08:13:24.727Z,5.13
2022-10-23T08:15:53.947Z,5.32
2022-10-23T08:18:23.020Z,5.35
2022-10-23T08:20:52.370Z,4.88
2022-10-23T08:23:20.262Z,4.70
2022-10-23T08:25:47.759Z,4.80
2022-10-23T08:28:16.991Z,4.60
2022-10-23T08:30:43.625Z,4.20
2022-10-23T08:33:12.576Z,4.75
2022-10-23T08:35:40.511Z,4.57
2022-10-23T08:38:07.876Z,4.10
2022-10-23T08:40:38.398Z,4.70
2022-10-23T08:43:11.011Z,4.38
2022-10-23T08:45:47.698Z,4.50
2022-10-23T08:48:28.616Z,4.78
2022-10-23T08:51:11.695Z,4.85
2022-10-23T08:53:56.279Z,4.47
2022-10-23T08:56:27.229Z,4.60
2022-10-23T08:58:56.128Z,4.13
2022-10-23T09:01:47.131Z,4.82
2022-10-23T09:04:15.463Z,4.63
2022-10-23T09:06:42.715Z,4.72
2022-10-23T09:09:28.755Z,4.50
2022-10-23T09:12:11.002Z,4.60
2022-10-23T09:15:06.970Z,4.53
2022-10-23T09:17:38.153Z,4.82
2022-10-23T09:20:25.723Z,4.88
2022-10-23T09:23:00.438Z,4.75
2022-10-23T09:25:29.976Z,4.78
2022-10-23T09:28:05.321Z,5.18
2022-10-23T09:30:40.495Z,5.15
2022-10-23T09:33:21.968Z,4.70
2022-10-23T09:36:18.379Z,4.72
2022-10-23T09:38:51.496Z,4.60
2022-10-23T09:41:38.770Z,3.75
2022-10-23T09:44:17.685Z,4.10
2022-10-23T09:46:46.862Z,4.10
2022-10-23T09:49:28.397Z,3.72
2022-10-23T09:52:11.830Z,3.85
2022-10-23T09:54:58.540Z,3.58
2022-10-23T09:57:38.261Z,3.47
2022-10-23T10:00:14.144Z,4.20
2022-10-23T10:02:54.572Z,4.45
2022-10-23T10:05:25.837Z,3.80
2022-10-23T10:08:27.579Z,4.15
2022-10-23T10:11:00.810Z,3.65
2022-10-23T10:13:33.436Z,3.85
2022-10-23T10:16:20.453Z,3.40
2022-10-23T10:19:02.693Z,3.40
2022-10-23T10:21:41.629Z,3.88
2022-10-23T10:24:17.207Z,3.60
2022-10-23T10:26:59.610Z,3.53
2022-10-23T10:29:58.895Z,3.90
2022-10-23T10:32:42.654Z,3.45
2022-10-23T10:35:22.526Z,3.25
2022-10-23T10:38:23.077Z,3.72
2022-10-23T10:41:14.450Z,3.00
2022-10-23T10:44:23.414Z,3.80
2022-10-23T10:47:13.246Z,3.40
2022-10-23T10:49:53.692Z,3.22
2022-10-23T10:52:49.379Z,3.38
2022-10-23T10:55:22.380Z,3.40
2022-10-23T10:57:59.978Z,3.05
2022-10-23T11:00:30.255Z,3.20
2022-10-23T11:03:18.510Z,3.67
2022-10-23T11:05:54.087Z,3.55
2022-10-23T11:08:56.180Z,3.47
2022-10-23T11:11:36.047Z,3.22
2022-10-23T11:14:03.944Z,3.05
2022-10-23T11:16:37.255Z,3.28
2022-10-23T11:19:27.431Z,3.63
2022-10-23T11:21:54.065Z,2.63
2022-10-23T11:24:23.541Z,3.40
2022-10-23T11:27:02.191Z,3.28
2022-10-23T11:29:51.752Z,3.45
2022-10-23T11:32:44.207Z,3.70
2022-10-23T11:35:25.998Z,3.55
2022-10-23T11:38:07.611Z,2.88
2022-10-23T11:40:34.776Z,3.47
2022-10-23T11:43:01.445Z,3.15
2022-10-23T11:45:36.105Z,2.92
2022-10-23T11:48:13.964Z,2.92
2022-10-23T11:50:46.854Z,3.65
2022-10-23T11:53:31.602Z,2.72
2022-10-23T11:56:06.730Z,2.97
2022-10-23T11:58:56.975Z,2.85
2022-10-23T12:01:45.803Z,3.03
2022-10-23T12:04:12.857Z,2.75
2022-10-23T12:06:58.045Z,2.50
2022-10-23T12:09:36.137Z,2.60
2022-10-23T12:12:08.144Z,2.65
2022-10-23T12:14:37.779Z,2.58
2022-10-23T12:17:23.841Z,2.28
2022-10-23T12:20:11.567Z,2.10
2022-10-23T12:23:15.089Z,2.60
2022-10-23T12:26:15.127Z,2.60
2022-10-23T12:29:03.140Z,2.55
2022-10-23T12:31:38.689Z,2.50
2022-10-23T12:34:32.080Z,2.00
2022-10-23T12:37:08.396Z,2.47
2022-10-23T12:39:37.546Z,3.33
2022-10-23T12:42:16.244Z,2.47
2022-10-23T12:44:45.074Z,2.53
2022-10-23T12:47:18.667Z,2.45
2022-10-23T12:49:50.176Z,2.50
2022-10-23T12:52:22.018Z,2.80
2022-10-23T12:54:50.939Z,2.10
2022-10-23T12:57:21.432Z,2.10
2022-10-23T12:59:50.904Z,2.40
2022-10-23T13:02:20.546Z,2.63
2022-10-23T13:04:50.145Z,2.40
2022-10-23T13:07:20.990Z,2.42
2022-10-23T13:09:48.258Z,2.28
2022-10-23T13:12:28.477Z,2.22
2022-10-23T13:15:00.177Z,2.20
2022-10-23T13:17:48.163Z,2.17
2022-10-23T13:20:18.022Z,2.40
2022-10-23T13:22:47.572Z,2.00
2022-10-23T13:25:41.039Z,1.98
2022-10-23T13:28:10.013Z,2.50
2022-10-23T13:30:40.349Z,2.20
2022-10-23T13:33:24.650Z,2.15
2022-10-23T13:36:04.068Z,2.30
2022-10-23T13:38:34.108Z,2.10
2022-10-23T13:41:02.273Z,2.00
2022-10-23T13:43:30.956Z,2.45
2022-10-23T13:45:59.278Z,1.88
2022-10-23T13:48:27.194Z,2.03
2022-10-23T13:50:54.900Z,1.90
2022-10-23T13:53:21.525Z,2.00
2022-10-23T13:55:57.780Z,1.70
2022-10-23T13:58:25.487Z,1.98
2022-10-23T14:00:53.217Z,1.83
2022-10-23T14:03:24.475Z,1.75
2022-10-23T14:05:51.892Z,1.88
2022-10-23T14:08:20.831Z,1.85
2022-10-23T14:10:47.480Z,1.77
2022-10-23T14:13:16.302Z,1.70
2022-10-23T14:15:43.112Z,2.40
2022-10-23T14:18:09.683Z,1.95
2022-10-23T14:20:39.349Z,2.03
2022-10-23T14:23:05.988Z,2.08
2022-10-23T14:25:37.261Z,2.05
2022-10-23T14:28:06.818Z,2.25
2022-10-23T14:30:35.671Z,1.83
2022-10-23T14:33:04.877Z,2.03
2022-10-23T14:35:31.589Z,2.08
2022-10-23T14:37:58.856Z,1.98
2022-10-23T14:40:27.875Z,2.00
2022-10-23T14:42:54.534Z,2.10
2022-10-23T14:45:21.324Z,2.00
2022-10-23T14:47:47.977Z,2.20
2022-10-23T14:50:15.956Z,2.72
2022-10-23T14:52:42.676Z,2.33
2022-10-23T14:55:09.581Z,2.08
2022-10-23T14:57:36.448Z,2.20
2022-10-23T15:00:04.489Z,2.22
2022-10-23T15:02:31.517Z,2.13
2022-10-23T15:04:58.271Z,2.40
2022-10-23T15:07:27.098Z,2.28
2022-10-23T15:09:53.797Z,2.33
2022-10-23T15:12:20.505Z,3.05
2022-10-23T15:14:47.531Z,2.50
2022-10-23T15:17:15.753Z,2.28
2022-10-23T15:19:45.143Z,2.67
2022-10-23T15:22:15.051Z,2.85
2022-10-23T15:24:41.707Z,2.40
2022-10-23T15:29:36.212Z,2.60
2022-10-23T15:32:05.269Z,2.53
2022-10-23T15:34:35.013Z,5.78
2022-10-23T15:37:04.330Z,4.65
2022-10-23T15:39:36.022Z,3.80
2022-10-23T15:42:05.343Z,2.92
2022-10-23T15:44:34.848Z,2.88
2022-10-23T15:47:01.557Z,2.60
2022-10-23T15:49:31.866Z,2.75
2022-10-23T15:52:00.847Z,2.33
2022-10-23T15:54:30.502Z,2.67
2022-10-23T15:56:59.367Z,2.20
2022-10-23T15:59:26.495Z,1.88
2022-10-23T16:01:56.696Z,2.38
2022-10-23T16:04:24.335Z,2.83
2022-10-23T16:06:50.982Z,2.92
2022-10-23T16:09:17.769Z,2.35
2022-10-23T16:11:44.522Z,3.35
2022-10-23T16:14:15.889Z,2.60
2022-10-23T16:16:43.362Z,2.40
2022-10-23T16:19:10.950Z,2.80
2022-10-23T16:21:37.666Z,2.75
2022-10-23T16:24:06.351Z,2.67
2022-10-23T16:26:33.911Z,3.05
2022-10-23T16:29:03.486Z,3.13
2022-10-23T16:31:30.318Z,2.83
2022-10-23T16:34:01.233Z,2.65
2022-10-23T16:36:28.809Z,2.80
2022-10-23T16:38:55.599Z,2.55
2022-10-23T16:41:24.776Z,2.60
2022-10-23T16:43:56.283Z,2.63
2022-10-23T16:46:23.086Z,2.55
2022-10-23T16:48:51.523Z,2.38
2022-10-23T16:51:21.376Z,3.15
2022-10-23T16:53:48.750Z,2.78
2022-10-23T16:56:18.896Z,2.80
2022-10-23T16:58:46.133Z,3.20
2022-10-23T17:01:25.030Z,3.33
2022-10-23T17:03:53.148Z,3.20
2022-10-23T17:06:26.034Z,3.33
2022-10-23T17:08:53.688Z,2.92
2022-10-23T17:11:21.697Z,3.67
2022-10-23T17:14:15.887Z,3.35
2022-10-23T17:16:47.722Z,3.10
2022-10-23T17:19:46.459Z,3.42
2022-10-23T17:22:10.677Z,3.42
2022-10-23T17:24:44.126Z,8.20
2022-10-23T17:27:13.132Z,12.65
2022-10-23T17:29:39.895Z,9.68
2022-10-23T17:32:09.079Z,4.80
2022-10-23T17:34:35.814Z,5.15
2022-10-23T17:37:04.968Z,5.40
2022-10-23T17:39:31.846Z,4.63
2022-10-23T17:41:59.089Z,4.65
2022-10-23T17:44:26.051Z,3.90
2022-10-23T17:46:55.133Z,3.92
2022-10-23T17:49:23.267Z,3.95
2022-10-23T17:51:55.893Z,3.28
2022-10-23T17:54:23.885Z,3.70
2022-10-23T17:56:50.750Z,3.42
2022-10-23T17:59:19.778Z,3.70
2022-10-23T18:01:48.621Z,4.10
2022-10-23T18:04:17.712Z,3.47
2022-10-23T18:06:48.103Z,3.50
2022-10-23T18:09:19.724Z,4.15
2022-10-23T18:11:48.234Z,3.92
2022-10-23T18:14:17.353Z,3.10
2022-10-23T18:16:45.838Z,3.75
2022-10-23T18:19:13.994Z,3.90
2022-10-23T18:21:40.803Z,3.03
2022-10-23T18:24:07.744Z,3.78
2022-10-23T18:26:35.342Z,3.75
2022-10-23T18:29:07.247Z,3.38
2022-10-23T18:31:35.992Z,3.00
2022-10-23T18:34:11.447Z,3.47
2022-10-23T18:36:43.475Z,3.08
2022-10-23T18:39:13.840Z,4.80
2022-10-23T18:41:43.302Z,3.10
2022-10-23T18:44:13.997Z,3.00
2022-10-23T18:46:40.980Z,3.15
2022-10-23T18:49:10.502Z,3.75
2022-10-23T18:51:39.931Z,3.22
2022-10-23T18:54:10.512Z,3.90
2022-10-23T18:56:39.904Z,3.30
2022-10-23T18:59:10.352Z,3.72
2022-10-23T19:01:39.908Z,3.05
2022-10-23T19:04:11.717Z,3.00
2022-10-23T19:06:39.029Z,3.10
2022-10-23T19:09:14.784Z,2.83
2022-10-23T19:11:42.556Z,3.13
2022-10-23T19:14:09.877Z,2.78
2022-10-23T19:16:58.627Z,2.58
2022-10-23T19:19:29.828Z,2.42
2022-10-23T19:21:57.053Z,2.20
2022-10-23T19:24:29.604Z,2.15
2022-10-23T19:26:57.902Z,2.03
2022-10-23T19:29:28.719Z,1.90
2022-10-23T19:31:55.863Z,1.90
2022-10-23T19:34:24.950Z,2.53
2022-10-23T19:36:55.980Z,2.20
2022-10-23T19:39:22.947Z,2.10
2022-10-23T19:41:51.669Z,1.80
2022-10-23T19:44:19.099Z,1.27
2022-10-23T19:46:45.965Z,1.30
2022-10-23T19:49:12.718Z,1.13
2022-10-23T19:51:39.662Z,1.02
2022-10-23T19:54:06.880Z,0.80
2022-10-23T19:56:33.541Z,0.77
2022-10-23T19:59:02.733Z,0.90
2022-10-23T20:01:29.612Z,0.90
2022-10-23T20:03:56.762Z,0.70
2022-10-23T20:06:26.948Z,0.45
2022-10-23T20:08:54.763Z,0.70
2022-10-23T20:11:28.381Z,0.60
2022-10-23T20:13:55.950Z,1.25
2022-10-23T20:16:28.965Z,0.70
2022-10-23T20:18:59.079Z,0.80
2022-10-23T20:21:26.146Z,1.40
2022-10-23T20:23:52.889Z,0.60
2022-10-23T20:26:24.089Z,0.80
2022-10-23T20:28:53.889Z,0.70
2022-10-23T20:31:22.396Z,0.80
2022-10-23T20:33:49.922Z,0.77
2022-10-23T20:36:26.858Z,0.70
2022-10-23T20:38:56.683Z,0.70
2022-10-23T20:41:26.085Z,1.00
2022-10-23T20:43:58.098Z,1.10
2022-10-23T20:46:24.840Z,1.20
2022-10-23T20:48:52.110Z,0.90
2022-10-23T20:51:20.981Z,1.27
2022-10-23T20:53:48.693Z,1.67
2022-10-23T20:56:30.053Z,1.50
2022-10-23T20:59:00.740Z,1.25
2022-10-23T21:01:28.369Z,0.95
2022-10-23T21:03:57.103Z,1.08
2022-10-23T21:06:41.030Z,1.08
2022-10-23T21:09:17.923Z,0.90
2022-10-23T21:11:44.645Z,1.08
2022-10-23T21:14:11.849Z,1.50
2022-10-23T21:16:44.720Z,1.23
2022-10-23T21:19:16.116Z,1.15
2022-10-23T21:21:43.671Z,1.42
2022-10-23T21:24:14.644Z,1.27
2022-10-23T21:26:41.813Z,1.33
2022-10-23T21:29:23.774Z,2.55
2022-10-23T21:32:01.619Z,1.40
2022-10-23T21:34:30.251Z,1.60
2022-10-23T21:37:12.604Z,1.50
2022-10-23T21:39:41.359Z,1.60
2022-10-23T21:42:08.242Z,1.73
2022-10-23T21:44:37.150Z,2.38
2022-10-23T21:47:06.161Z,1.92
2022-10-23T21:49:35.280Z,1.63
2022-10-23T21:52:04.225Z,1.67
2022-10-23T21:54:30.921Z,1.85
2022-10-23T21:56:57.767Z,1.88
2022-10-23T21:59:34.826Z,1.77
2022-10-23T22:02:02.587Z,1.95
2022-10-23T22:04:29.556Z,1.75
2022-10-23T22:06:56.301Z,1.95
2022-10-23T22:09:25.355Z,1.88
2022-10-23T22:11:53.788Z,2.13
2022-10-23T22:14:21.315Z,1.75
2022-10-23T22:16:48.093Z,2.20
2022-10-23T22:19:17.009Z,2.17
2022-10-23T22:21:46.234Z,1.90
2022-10-23T22:24:15.773Z,2.20
2022-10-23T22:26:46.281Z,2.00
2022-10-23T22:29:17.316Z,2.40
2022-10-23T22:31:48.780Z,2.05
2022-10-23T22:34:47.758Z,1.83
2022-10-23T22:37:10.637Z,3.22
2022-10-23T22:39:37.691Z,2.00
2022-10-23T22:42:07.004Z,1.98
2022-10-23T22:44:33.582Z,1.80
2022-10-23T22:47:00.312Z,2.05
2022-10-23T22:49:26.927Z,2.10
2022-10-23T22:51:53.777Z,1.83
2022-10-23T22:54:20.418Z,2.33
2022-10-23T22:56:47.241Z,2.20
2022-10-23T22:59:13.964Z,2.08
2022-10-23T23:01:44.292Z,1.63
2022-10-23T23:04:37.940Z,1.98
2022-10-23T23:07:05.228Z,2.28
2022-10-23T23:09:35.340Z,2.03
2022-10-23T23:12:01.919Z,2.00
2022-10-23T23:14:28.704Z,2.25
2022-10-23T23:16:55.985Z,2.13
2022-10-23T23:19:23.355Z,2.00
2022-10-23T23:21:50.314Z,1.70
2022-10-23T23:24:17.110Z,2.58
2022-10-23T23:26:43.870Z,1.92
2022-10-23T23:29:10.655Z,2.00
2022-10-23T23:31:39.746Z,1.90
2022-10-23T23:34:06.527Z,2.25
2022-10-23T23:36:33.969Z,2.30
2022-10-23T23:39:01.283Z,2.15
2022-10-23T23:41:29.012Z,2.22
2022-10-23T23:43:57.555Z,2.42
2022-10-23T23:46:24.891Z,2.50
2022-10-23T23:48:51.647Z,1.80
2022-10-23T23:51:22.934Z,1.90
2022-10-23T23:53:52.788Z,3.08
2022-10-23T23:56:19.890Z,2.05
2022-10-23T23:58:49.317Z,2.10
